createdAt,value
2019-05-19T00:01:40.388Z,15.43
2019-05-19T00:04:08.987Z,15.41
2019-05-19T00:06:37.619Z,15.31
2019-05-19T00:09:06.651Z,15.27
2019-05-19T00:11:35.184Z,15.22
2019-05-19T00:14:03.808Z,15.18
2019-05-19T00:16:32.608Z,15.18
2019-05-19T00:19:01.266Z,15.15
2019-05-19T00:21:29.909Z,15.02
2019-05-19T00:23:59.875Z,15.02
2019-05-19T00:26:28.581Z,14.94
2019-05-19T00:28:57.140Z,14.86
2019-05-19T00:31:25.782Z,14.84
2019-05-19T00:33:54.384Z,14.82
2019-05-19T00:36:22.969Z,14.70
2019-05-19T00:38:51.534Z,14.75
2019-05-19T00:41:20.197Z,14.62
2019-05-19T00:43:49.108Z,14.55
2019-05-19T00:46:17.659Z,14.58
2019-05-19T00:48:46.436Z,14.61
2019-05-19T00:51:15.359Z,14.63
2019-05-19T00:53:43.915Z,14.48
2019-05-19T00:56:12.988Z,14.44
2019-05-19T00:58:42.028Z,14.33
2019-05-19T01:01:10.724Z,14.16
2019-05-19T01:03:39.326Z,14.30
2019-05-19T01:06:08.043Z,14.30
2019-05-19T01:08:36.675Z,14.28
2019-05-19T01:11:05.349Z,14.34
2019-05-19T01:13:33.997Z,14.23
2019-05-19T01:16:02.640Z,14.13
2019-05-19T01:18:31.239Z,14.04
2019-05-19T01:21:00.079Z,14.03
2019-05-19T01:23:28.762Z,13.98
2019-05-19T01:25:57.439Z,13.96
2019-05-19T01:28:26.078Z,13.96
2019-05-19T01:30:54.743Z,13.89
2019-05-19T01:33:23.513Z,13.92
2019-05-19T01:35:52.176Z,13.90
2019-05-19T01:38:20.803Z,13.96
2019-05-19T01:40:49.448Z,13.81
2019-05-19T01:43:18.023Z,13.79
2019-05-19T01:45:46.650Z,13.72
2019-05-19T01:48:15.264Z,13.75
2019-05-19T01:50:43.958Z,13.74
2019-05-19T01:53:12.520Z,13.79
2019-05-19T01:55:41.046Z,13.69
2019-05-19T01:58:09.744Z,13.63
2019-05-19T02:00:38.496Z,13.60
2019-05-19T02:03:07.171Z,13.57
2019-05-19T02:05:35.811Z,13.75
2019-05-19T02:08:04.483Z,13.69
2019-05-19T02:10:33.151Z,13.58
2019-05-19T02:13:05.038Z,13.54
2019-05-19T02:15:32.085Z,13.44
2019-05-19T02:18:00.771Z,13.32
2019-05-19T02:20:33.104Z,13.28
2019-05-19T02:22:59.771Z,13.17
2019-05-19T02:25:28.517Z,13.12
2019-05-19T02:27:57.086Z,12.95
2019-05-19T02:30:26.260Z,12.92
2019-05-19T02:32:54.837Z,12.83
2019-05-19T02:35:23.592Z,12.71
2019-05-19T02:37:52.203Z,12.56
2019-05-19T02:40:21.006Z,12.69
2019-05-19T02:42:51.380Z,12.67
2019-05-19T02:45:20.183Z,12.62
2019-05-19T02:47:50.159Z,12.68
2019-05-19T02:50:18.800Z,12.71
2019-05-19T02:52:50.256Z,12.86
2019-05-19T02:55:20.611Z,12.97
2019-05-19T02:57:51.015Z,13.07
2019-05-19T03:00:22.634Z,13.06
2019-05-19T03:02:51.239Z,13.06
2019-05-19T03:05:19.763Z,13.09
2019-05-19T03:07:48.341Z,13.13
2019-05-19T03:10:16.987Z,13.17
2019-05-19T03:12:45.641Z,13.12
2019-05-19T03:15:14.342Z,12.96
2019-05-19T03:17:42.906Z,12.97
2019-05-19T03:20:11.558Z,12.99
2019-05-19T03:22:40.190Z,13.05
2019-05-19T03:25:08.757Z,13.34
2019-05-19T03:27:37.335Z,13.67
2019-05-19T03:30:27.450Z,13.92
2019-05-19T03:33:04.854Z,14.37
2019-05-19T03:35:33.372Z,15.15
2019-05-19T03:38:01.937Z,15.90
2019-05-19T03:40:30.504Z,16.79
2019-05-19T03:42:59.184Z,17.60
2019-05-19T03:45:27.812Z,18.28
2019-05-19T03:47:56.438Z,19.04
2019-05-19T03:50:25.151Z,19.85
2019-05-19T03:52:53.848Z,20.53
2019-05-19T03:55:22.473Z,21.27
2019-05-19T03:57:51.075Z,22.08
2019-05-19T04:00:19.800Z,22.44
2019-05-19T04:02:48.367Z,23.10
2019-05-19T04:05:17.140Z,22.89
2019-05-19T04:07:45.775Z,23.99
2019-05-19T04:10:15.212Z,23.87
2019-05-19T04:12:43.923Z,24.56
2019-05-19T04:15:13.424Z,25.30
2019-05-19T04:17:41.985Z,25.81
2019-05-19T04:20:10.679Z,26.77
2019-05-19T04:22:39.353Z,26.66
2019-05-19T04:25:08.059Z,27.43
2019-05-19T04:27:36.822Z,27.93
2019-05-19T04:30:07.748Z,28.51
2019-05-19T04:32:36.311Z,28.76
2019-05-19T04:35:06.380Z,28.16
2019-05-19T04:37:35.064Z,27.09
2019-05-19T04:40:04.690Z,25.56
2019-05-19T04:42:33.281Z,26.83
2019-05-19T04:45:01.911Z,25.33
2019-05-19T04:47:30.469Z,23.71
2019-05-19T04:49:58.994Z,23.70
2019-05-19T04:52:27.567Z,24.52
2019-05-19T04:54:56.251Z,25.66
2019-05-19T04:57:24.887Z,27.07
2019-05-19T04:59:53.461Z,26.65
2019-05-19T05:02:22.090Z,27.25
2019-05-19T05:04:50.763Z,26.25
2019-05-19T05:07:19.325Z,26.77
2019-05-19T05:09:47.960Z,26.95
2019-05-19T05:12:16.672Z,27.37
2019-05-19T05:14:45.225Z,26.17
2019-05-19T05:17:13.787Z,26.88
2019-05-19T05:19:42.459Z,25.69
2019-05-19T05:22:21.700Z,25.08
2019-05-19T05:24:41.319Z,24.50
2019-05-19T05:27:10.120Z,23.26
2019-05-19T05:29:38.754Z,22.21
2019-05-19T05:32:07.318Z,22.29
2019-05-19T05:34:35.945Z,21.84
2019-05-19T05:37:04.579Z,21.56
2019-05-19T05:39:33.238Z,20.69
2019-05-19T05:42:01.848Z,20.40
2019-05-19T05:44:30.480Z,21.74
2019-05-19T05:46:59.108Z,23.23
2019-05-19T05:49:27.653Z,22.40
2019-05-19T05:51:56.275Z,22.34
2019-05-19T05:54:25.090Z,22.29
2019-05-19T05:56:53.722Z,22.59
2019-05-19T05:59:22.294Z,22.70
2019-05-19T06:01:50.799Z,23.00
2019-05-19T06:04:19.470Z,22.39
2019-05-19T06:06:48.038Z,23.02
2019-05-19T06:09:16.612Z,24.18
2019-05-19T06:11:45.394Z,24.82
2019-05-19T06:14:14.020Z,24.82
2019-05-19T06:16:42.583Z,26.13
2019-05-19T06:19:11.244Z,27.74
2019-05-19T06:21:39.798Z,29.29
2019-05-19T06:24:08.286Z,29.80
2019-05-19T06:26:36.910Z,30.15
2019-05-19T06:29:05.645Z,30.81
2019-05-19T06:31:34.205Z,30.78
2019-05-19T06:34:02.733Z,31.05
2019-05-19T06:36:31.365Z,30.82
2019-05-19T06:39:00.153Z,32.04
2019-05-19T06:41:28.861Z,32.83
2019-05-19T06:43:57.423Z,32.67
2019-05-19T06:46:26.085Z,32.09
2019-05-19T06:48:54.751Z,31.31
2019-05-19T06:51:23.316Z,29.40
2019-05-19T06:53:51.886Z,28.99
2019-05-19T06:56:20.491Z,29.84
2019-05-19T06:58:49.122Z,29.33
2019-05-19T07:01:17.683Z,30.68
2019-05-19T07:03:46.503Z,31.09
2019-05-19T07:06:15.066Z,29.66
2019-05-19T07:08:43.694Z,30.38
2019-05-19T07:11:12.362Z,30.66
2019-05-19T07:13:41.045Z,29.67
2019-05-19T07:16:09.569Z,29.11
2019-05-19T07:18:38.235Z,28.93
2019-05-19T07:21:06.806Z,28.51
2019-05-19T07:23:35.296Z,28.88
2019-05-19T07:26:03.986Z,28.88
2019-05-19T07:28:32.623Z,29.21
2019-05-19T07:31:01.254Z,30.12
2019-05-19T07:33:30.587Z,30.12
2019-05-19T07:35:59.254Z,29.99
2019-05-19T07:38:27.895Z,29.69
2019-05-19T07:40:56.557Z,29.55
2019-05-19T07:43:25.188Z,30.13
2019-05-19T07:45:53.752Z,30.39
2019-05-19T07:48:22.415Z,31.15
2019-05-19T07:50:51.043Z,31.45
2019-05-19T07:53:19.680Z,30.90
2019-05-19T07:55:48.287Z,29.98
2019-05-19T07:58:16.787Z,29.91
2019-05-19T08:00:45.408Z,31.08
2019-05-19T08:03:14.074Z,31.42
2019-05-19T08:05:42.624Z,30.86
2019-05-19T08:08:11.199Z,31.32
2019-05-19T08:10:39.875Z,30.59
2019-05-19T08:13:08.588Z,30.96
2019-05-19T08:15:37.084Z,29.51
2019-05-19T08:18:05.758Z,28.74
2019-05-19T08:20:34.496Z,28.67
2019-05-19T08:23:03.087Z,27.45
2019-05-19T08:25:31.739Z,26.35
2019-05-19T08:28:08.349Z,25.74
2019-05-19T08:30:30.765Z,26.67
2019-05-19T08:32:59.303Z,27.81
2019-05-19T08:35:28.026Z,28.33
2019-05-19T08:37:56.789Z,28.28
2019-05-19T08:40:25.387Z,27.86
2019-05-19T08:42:53.880Z,27.92
2019-05-19T08:45:22.501Z,27.88
2019-05-19T08:47:51.169Z,27.45
2019-05-19T08:50:19.803Z,26.28
2019-05-19T08:52:48.291Z,26.33
2019-05-19T08:55:17.049Z,26.31
2019-05-19T08:57:45.584Z,26.13
2019-05-19T09:00:14.442Z,26.09
2019-05-19T09:02:43.112Z,25.94
2019-05-19T09:05:12.242Z,25.38
2019-05-19T09:07:40.727Z,26.32
2019-05-19T09:10:09.771Z,26.88
2019-05-19T09:12:38.831Z,27.98
2019-05-19T09:15:08.068Z,28.52
2019-05-19T09:17:36.606Z,29.39
2019-05-19T09:20:06.231Z,28.81
2019-05-19T09:22:34.868Z,29.07
2019-05-19T09:25:04.539Z,29.53
2019-05-19T09:27:33.080Z,28.63
2019-05-19T09:30:01.767Z,27.36
2019-05-19T09:32:30.452Z,28.34
2019-05-19T09:34:58.951Z,28.61
2019-05-19T09:37:27.509Z,28.67
2019-05-19T09:39:56.171Z,28.00
2019-05-19T09:42:24.810Z,27.69
2019-05-19T09:44:53.390Z,27.55
2019-05-19T09:47:21.994Z,26.60
2019-05-19T09:49:50.648Z,26.90
2019-05-19T09:52:19.331Z,26.99
2019-05-19T09:54:47.931Z,27.29
2019-05-19T09:57:16.565Z,27.88
2019-05-19T09:59:45.199Z,27.44
2019-05-19T10:02:13.873Z,27.94
2019-05-19T10:04:42.424Z,28.34
2019-05-19T10:07:11.132Z,28.92
2019-05-19T10:09:58.189Z,29.26
2019-05-19T10:12:26.907Z,29.45
2019-05-19T10:14:55.524Z,29.22
2019-05-19T10:17:24.185Z,28.45
2019-05-19T10:19:52.788Z,28.36
2019-05-19T10:22:21.371Z,28.24
2019-05-19T10:25:10.254Z,28.20
2019-05-19T10:27:21.742Z,27.69
2019-05-19T10:29:50.410Z,27.53
2019-05-19T10:32:19.018Z,27.24
2019-05-19T10:34:47.662Z,26.91
2019-05-19T10:37:16.296Z,26.55
2019-05-19T10:39:44.812Z,26.89
2019-05-19T10:42:13.495Z,26.33
2019-05-19T10:44:42.133Z,26.33
2019-05-19T10:47:10.781Z,26.61
2019-05-19T10:49:39.399Z,26.73
2019-05-19T10:52:07.953Z,26.19
2019-05-19T10:54:36.560Z,26.43
2019-05-19T10:57:05.210Z,26.55
2019-05-19T10:59:33.950Z,26.50
2019-05-19T11:02:02.583Z,26.44
2019-05-19T11:04:31.081Z,26.19
2019-05-19T11:06:59.625Z,26.42
2019-05-19T11:09:28.262Z,26.88
2019-05-19T11:11:56.895Z,26.92
2019-05-19T11:14:25.464Z,26.99
2019-05-19T11:16:54.267Z,26.94
2019-05-19T11:19:22.931Z,27.38
2019-05-19T11:21:51.560Z,27.30
2019-05-19T11:24:20.047Z,26.99
2019-05-19T11:26:48.713Z,27.25
2019-05-19T11:29:17.338Z,26.73
2019-05-19T11:31:45.968Z,26.71
2019-05-19T11:34:14.738Z,26.86
2019-05-19T11:36:43.370Z,26.82
2019-05-19T11:39:11.867Z,26.72
2019-05-19T11:41:40.387Z,26.79
2019-05-19T11:44:09.036Z,26.48
2019-05-19T11:46:37.649Z,26.69
2019-05-19T11:49:06.253Z,26.98
2019-05-19T11:51:34.740Z,26.73
2019-05-19T11:54:03.426Z,26.72
2019-05-19T11:56:32.127Z,26.53
2019-05-19T11:59:00.656Z,26.92
2019-05-19T12:01:29.270Z,26.78
2019-05-19T12:03:57.942Z,26.93
2019-05-19T12:06:38.951Z,27.38
2019-05-19T12:08:56.890Z,27.65
2019-05-19T12:11:25.422Z,27.82
2019-05-19T12:13:54.069Z,27.37
2019-05-19T12:16:22.681Z,26.84
2019-05-19T12:18:51.370Z,26.90
2019-05-19T12:21:20.002Z,26.41
2019-05-19T12:23:48.499Z,26.20
2019-05-19T12:26:23.119Z,26.73
2019-05-19T12:28:47.376Z,26.81
2019-05-19T12:31:16.006Z,26.42
2019-05-19T12:33:51.811Z,26.46
2019-05-19T12:36:15.115Z,26.02
2019-05-19T12:38:43.756Z,25.86
2019-05-19T12:41:12.499Z,25.68
2019-05-19T12:43:41.078Z,25.76
2019-05-19T12:46:16.406Z,25.36
2019-05-19T12:48:40.173Z,25.34
2019-05-19T12:51:08.788Z,25.26
2019-05-19T12:53:37.388Z,25.36
2019-05-19T12:56:06.012Z,25.36
2019-05-19T12:58:34.572Z,25.51
2019-05-19T13:01:03.175Z,25.27
2019-05-19T13:03:31.807Z,25.12
2019-05-19T13:06:03.187Z,25.17
2019-05-19T13:08:31.719Z,25.03
2019-05-19T13:11:00.282Z,24.76
2019-05-19T13:13:28.906Z,24.87
2019-05-19T13:15:57.591Z,25.12
2019-05-19T13:18:26.152Z,25.19
2019-05-19T13:20:54.641Z,25.01
2019-05-19T13:23:23.381Z,25.14
2019-05-19T13:25:52.009Z,25.11
2019-05-19T13:28:20.497Z,25.27
2019-05-19T13:30:49.023Z,25.13
2019-05-19T13:33:17.662Z,24.90
2019-05-19T13:35:46.159Z,24.67
2019-05-19T13:38:14.859Z,24.66
2019-05-19T13:40:43.641Z,24.76
2019-05-19T13:43:12.122Z,24.77
2019-05-19T13:45:40.732Z,24.46
2019-05-19T13:48:09.356Z,24.28
2019-05-19T13:50:37.986Z,24.11
2019-05-19T13:53:06.650Z,24.07
2019-05-19T13:55:35.145Z,24.16
2019-05-19T13:58:03.791Z,24.17
2019-05-19T14:00:32.563Z,24.09
2019-05-19T14:03:01.063Z,24.10
2019-05-19T14:05:29.556Z,24.27
2019-05-19T14:07:58.289Z,24.41
2019-05-19T14:10:26.939Z,24.44
2019-05-19T14:12:55.430Z,24.45
2019-05-19T14:15:24.102Z,24.48
2019-05-19T14:17:52.675Z,24.60
2019-05-19T14:20:21.154Z,24.51
2019-05-19T14:22:49.822Z,24.55
2019-05-19T14:25:18.462Z,24.51
2019-05-19T14:27:46.947Z,24.50
2019-05-19T14:30:16.812Z,24.64
2019-05-19T14:32:45.460Z,24.80
2019-05-19T14:35:14.094Z,25.04
2019-05-19T14:37:42.619Z,24.90
2019-05-19T14:40:11.548Z,24.95
2019-05-19T14:42:47.800Z,24.90
2019-05-19T14:45:16.967Z,24.77
2019-05-19T14:47:45.627Z,24.98
2019-05-19T14:50:14.564Z,25.32
2019-05-19T14:52:43.308Z,25.47
2019-05-19T14:55:11.941Z,26.09
2019-05-19T14:57:45.078Z,26.09
2019-05-19T15:00:11.966Z,26.11
2019-05-19T15:02:40.592Z,26.45
2019-05-19T15:05:09.520Z,26.58
2019-05-19T15:07:38.048Z,26.95
2019-05-19T15:10:07.289Z,26.96
2019-05-19T15:12:35.923Z,26.61
2019-05-19T15:15:08.642Z,26.66
2019-05-19T15:17:37.142Z,25.75
2019-05-19T15:20:07.285Z,25.72
2019-05-19T15:22:35.965Z,25.74
2019-05-19T15:25:05.105Z,25.14
2019-05-19T15:27:33.596Z,24.98
2019-05-19T15:30:12.246Z,25.08
2019-05-19T15:32:32.488Z,24.67
2019-05-19T15:35:01.159Z,24.43
2019-05-19T15:37:29.815Z,24.16
2019-05-19T15:39:58.448Z,24.10
2019-05-19T15:42:27.044Z,24.00
2019-05-19T15:44:55.579Z,24.03
2019-05-19T15:47:24.328Z,23.95
2019-05-19T15:49:52.948Z,23.97
2019-05-19T15:52:21.554Z,24.02
2019-05-19T15:54:50.142Z,23.99
2019-05-19T15:57:18.772Z,24.00
2019-05-19T15:59:47.671Z,24.05
2019-05-19T16:02:16.292Z,23.97
2019-05-19T16:04:44.799Z,24.06
2019-05-19T16:07:13.470Z,23.98
2019-05-19T16:09:42.112Z,24.08
2019-05-19T16:12:10.620Z,24.00
2019-05-19T16:14:39.295Z,24.05
2019-05-19T16:17:07.891Z,23.97
2019-05-19T16:19:36.450Z,24.06
2019-05-19T16:22:05.324Z,24.09
2019-05-19T16:24:33.956Z,24.18
2019-05-19T16:27:02.596Z,24.08
2019-05-19T16:29:31.147Z,24.02
2019-05-19T16:31:59.705Z,24.05
2019-05-19T16:34:28.454Z,24.02
2019-05-19T16:36:57.004Z,23.97
2019-05-19T16:39:25.500Z,23.93
2019-05-19T16:41:54.143Z,23.88
2019-05-19T16:44:22.873Z,23.87
2019-05-19T16:46:51.387Z,23.88
2019-05-19T16:49:19.986Z,23.81
2019-05-19T16:51:48.722Z,23.74
2019-05-19T16:54:18.925Z,23.73
2019-05-19T16:56:47.554Z,23.71
2019-05-19T16:59:16.245Z,23.59
2019-05-19T17:01:44.804Z,23.43
2019-05-19T17:04:13.307Z,23.38
2019-05-19T17:06:42.064Z,23.37
2019-05-19T17:09:10.702Z,23.29
2019-05-19T17:11:39.190Z,23.27
2019-05-19T17:14:07.792Z,23.21
2019-05-19T17:16:36.422Z,23.03
2019-05-19T17:19:05.056Z,22.75
2019-05-19T17:21:33.718Z,22.72
2019-05-19T17:24:02.234Z,22.72
2019-05-19T17:26:30.863Z,22.56
2019-05-19T17:31:30.707Z,22.29
2019-05-19T17:33:59.272Z,22.11
2019-05-19T17:36:27.842Z,22.10
2019-05-19T17:38:56.434Z,22.18
2019-05-19T17:41:24.989Z,22.16
2019-05-19T17:43:53.631Z,21.90
2019-05-19T17:46:22.292Z,21.86
2019-05-19T17:48:50.781Z,21.58
2019-05-19T17:51:19.414Z,21.36
2019-05-19T17:53:48.247Z,21.25
2019-05-19T17:56:16.945Z,21.17
2019-05-19T17:58:47.042Z,21.06
2019-05-19T18:01:15.685Z,20.94
2019-05-19T18:03:45.043Z,20.88
2019-05-19T18:06:13.690Z,20.82
2019-05-19T18:08:42.228Z,20.78
2019-05-19T18:11:10.860Z,20.72
2019-05-19T18:13:39.357Z,20.67
2019-05-19T18:16:07.952Z,20.56
2019-05-19T18:18:36.586Z,20.46
2019-05-19T18:21:05.284Z,20.45
2019-05-19T18:23:33.881Z,20.40
2019-05-19T18:26:02.503Z,20.39
2019-05-19T18:28:31.171Z,20.30
2019-05-19T18:30:59.842Z,20.27
2019-05-19T18:33:28.342Z,20.22
2019-05-19T18:35:56.842Z,20.11
2019-05-19T18:38:25.514Z,20.16
2019-05-19T18:40:54.146Z,20.15
2019-05-19T18:43:22.722Z,20.16
2019-05-19T18:45:51.361Z,20.11
2019-05-19T18:48:23.160Z,20.02
2019-05-19T18:50:50.308Z,19.97
2019-05-19T18:53:18.939Z,19.88
2019-05-19T18:55:47.571Z,19.79
2019-05-19T18:58:16.104Z,19.84
2019-05-19T19:00:44.732Z,19.79
2019-05-19T19:03:13.377Z,19.75
2019-05-19T19:05:42.077Z,19.72
2019-05-19T19:08:10.644Z,19.63
2019-05-19T19:10:39.274Z,19.58
2019-05-19T19:13:07.874Z,19.53
2019-05-19T19:15:36.504Z,19.48
2019-05-19T19:18:05.200Z,19.55
2019-05-19T19:20:34.376Z,19.63
2019-05-19T19:23:03.165Z,19.56
2019-05-19T19:25:31.792Z,19.48
2019-05-19T19:28:00.462Z,19.28
2019-05-19T19:30:29.105Z,19.18
2019-05-19T19:32:57.729Z,19.16
2019-05-19T19:35:26.413Z,19.12
2019-05-19T19:37:55.054Z,19.11
2019-05-19T19:40:31.074Z,19.11
2019-05-19T19:43:02.815Z,18.99
2019-05-19T19:45:31.430Z,19.04
2019-05-19T19:48:00.114Z,18.99
2019-05-19T19:50:28.806Z,18.90
2019-05-19T19:52:57.414Z,18.85
2019-05-19T19:55:25.969Z,18.75
2019-05-19T19:57:54.730Z,18.69
2019-05-19T20:00:37.776Z,18.78
2019-05-19T20:03:07.114Z,18.64
2019-05-19T20:05:35.747Z,18.58
2019-05-19T20:08:04.874Z,18.60
2019-05-19T20:10:33.398Z,18.63
2019-05-19T20:13:01.968Z,18.55
2019-05-19T20:15:30.527Z,18.44
2019-05-19T20:17:59.120Z,18.43
2019-05-19T20:20:27.747Z,18.37
2019-05-19T20:22:56.404Z,18.37
2019-05-19T20:25:25.007Z,18.27
2019-05-19T20:27:53.637Z,18.33
2019-05-19T20:30:35.186Z,18.25
2019-05-19T20:32:52.667Z,18.16
2019-05-19T20:35:21.159Z,18.11
2019-05-19T20:37:49.858Z,18.12
2019-05-19T20:40:18.516Z,18.08
2019-05-19T20:42:47.099Z,18.07
2019-05-19T20:45:15.737Z,18.07
2019-05-19T20:47:44.331Z,18.00
2019-05-19T20:50:13.065Z,17.99
2019-05-19T20:52:41.790Z,17.92
2019-05-19T20:55:10.549Z,17.81
2019-05-19T20:57:39.040Z,17.80
2019-05-19T21:00:09.181Z,17.80
2019-05-19T21:02:37.862Z,17.76
2019-05-19T21:05:06.698Z,17.73
2019-05-19T21:07:35.201Z,17.70
2019-05-19T21:10:05.374Z,17.68
2019-05-19T21:12:34.011Z,17.93
2019-05-19T21:15:02.568Z,17.94
2019-05-19T21:17:31.210Z,17.82
2019-05-19T21:19:59.700Z,17.82
2019-05-19T21:22:28.327Z,17.76
2019-05-19T21:24:56.966Z,17.79
2019-05-19T21:27:25.542Z,17.60
2019-05-19T21:29:54.213Z,17.53
2019-05-19T21:32:22.738Z,17.56
2019-05-19T21:34:51.238Z,17.41
2019-05-19T21:37:19.905Z,17.37
2019-05-19T21:39:48.560Z,17.45
2019-05-19T21:42:17.023Z,17.34
2019-05-19T21:44:45.623Z,17.37
2019-05-19T21:47:14.271Z,17.31
2019-05-19T21:49:42.903Z,17.15
2019-05-19T21:52:11.505Z,17.20
2019-05-19T21:54:40.074Z,17.24
2019-05-19T21:57:08.803Z,17.32
2019-05-19T21:59:37.469Z,17.16
2019-05-19T22:02:06.574Z,17.02
2019-05-19T22:04:35.152Z,16.99
2019-05-19T22:07:20.602Z,16.90
2019-05-19T22:09:49.316Z,16.88
2019-05-19T22:12:17.957Z,16.89
2019-05-19T22:14:46.683Z,16.89
2019-05-19T22:17:15.175Z,16.81
2019-05-19T22:19:43.672Z,16.75
2019-05-19T22:22:12.344Z,16.69
2019-05-19T22:24:40.973Z,16.80
2019-05-19T22:27:09.537Z,16.89
2019-05-19T22:29:38.137Z,16.79
2019-05-19T22:32:06.769Z,16.83
2019-05-19T22:34:35.404Z,16.79
2019-05-19T22:37:04.018Z,16.51
2019-05-19T22:39:32.501Z,16.59
2019-05-19T22:42:01.176Z,16.64
2019-05-19T22:44:29.828Z,16.87
2019-05-19T22:46:58.390Z,16.76
2019-05-19T22:49:27.019Z,16.72
2019-05-19T22:51:55.607Z,16.81
2019-05-19T22:54:24.105Z,16.76
2019-05-19T22:56:52.734Z,16.62
2019-05-19T22:59:21.401Z,16.49
2019-05-19T23:01:52.117Z,16.50
2019-05-19T23:04:20.384Z,16.53
2019-05-19T23:06:49.010Z,16.50
2019-05-19T23:09:17.753Z,16.38
2019-05-19T23:11:46.343Z,16.46
2019-05-19T23:14:14.901Z,16.43
2019-05-19T23:16:43.528Z,16.56
2019-05-19T23:19:12.197Z,16.53
2019-05-19T23:21:40.688Z,16.49
2019-05-19T23:24:09.248Z,16.32
2019-05-19T23:26:37.937Z,16.33
2019-05-19T23:29:06.569Z,16.24
2019-05-19T23:31:35.202Z,16.09
2019-05-19T23:34:03.800Z,16.07
2019-05-19T23:36:32.362Z,16.12
2019-05-19T23:39:00.853Z,16.34
2019-05-19T23:41:29.533Z,16.35
2019-05-19T23:43:58.170Z,16.36
2019-05-19T23:46:26.660Z,16.46
2019-05-19T23:48:55.178Z,16.61
2019-05-19T23:51:23.807Z,16.65
2019-05-19T23:53:52.439Z,16.46
2019-05-19T23:56:21.121Z,16.35
2019-05-19T23:58:49.617Z,16.45
